Leith, North Dakota
Current Conditions -  °F | °C
As of 4:55 PM on Sunday 21 Dec 2014 (Local Time) from KD57 Reporting Station
Overcast Overcast  
Wind Chill: 27°   Ceiling: 7000
Heat Index: 32°   Visibility: 10mi
Dew Point: 27°   Wind: 5mph
Humidity: 80%   Direction: 80°E
Pressure: 29.39"   Gusts: NA
Location:  46.3453°N, 101.479°W
Report Text: KD57 212355Z AUTO 08004KT 10SM BKN070 OVC090 M00/M03 A2939 RMK AO2 TSNO
Loading
Personal Weather Stations






























Interactive Weather Map New forecast layout! Learn more

10-Day Weather Forecast

Advertisements
Track Severe Weather on mobile